createdAt,value
2018-09-22T00:00:50.545Z,4.30
2018-09-22T00:03:18.356Z,5.10
2018-09-22T00:05:45.237Z,2.83
2018-09-22T00:08:12.091Z,2.57
2018-09-22T00:10:39.071Z,3.07
2018-09-22T00:13:06.003Z,2.57
2018-09-22T00:15:33.016Z,2.80
2018-09-22T00:17:59.908Z,2.70
2018-09-22T00:20:26.883Z,3.10
2018-09-22T00:22:53.827Z,2.13
2018-09-22T00:25:20.805Z,2.03
2018-09-22T00:27:47.761Z,2.43
2018-09-22T00:30:14.610Z,2.47
2018-09-22T00:32:41.556Z,5.10
2018-09-22T00:35:08.519Z,2.37
2018-09-22T00:37:35.531Z,3.47
2018-09-22T00:40:02.424Z,1.90
2018-09-22T00:42:29.380Z,2.60
2018-09-22T00:44:56.379Z,5.50
2018-09-22T00:47:23.303Z,13.10
2018-09-22T00:49:50.249Z,6.17
2018-09-22T00:52:17.148Z,3.57
2018-09-22T00:54:45.083Z,6.20
2018-09-22T00:57:12.072Z,5.20
2018-09-22T00:59:39.416Z,4.07
2018-09-22T01:02:06.372Z,3.07
2018-09-22T01:04:33.227Z,2.73
2018-09-22T01:07:00.190Z,2.50
2018-09-22T01:09:27.155Z,4.13
2018-09-22T01:11:54.156Z,2.40
2018-09-22T01:14:21.003Z,2.20
2018-09-22T01:16:47.919Z,2.70
2018-09-22T01:19:14.871Z,2.60
2018-09-22T01:21:41.831Z,2.10
2018-09-22T01:24:08.807Z,1.97
2018-09-22T01:26:35.673Z,2.07
2018-09-22T01:29:02.783Z,1.90
2018-09-22T01:31:29.688Z,1.63
2018-09-22T01:33:56.535Z,1.90
2018-09-22T01:36:23.398Z,2.00
2018-09-22T01:38:50.323Z,2.53
2018-09-22T01:41:17.332Z,2.30
2018-09-22T01:43:44.255Z,2.50
2018-09-22T01:46:11.208Z,2.20
2018-09-22T01:48:38.077Z,2.90
2018-09-22T01:51:05.011Z,3.60
2018-09-22T01:53:32.003Z,10.40
2018-09-22T01:55:58.931Z,10.63
2018-09-22T01:58:25.975Z,5.50
2018-09-22T02:00:52.866Z,3.33
2018-09-22T02:03:19.803Z,4.17
2018-09-22T02:05:46.759Z,5.03
2018-09-22T02:08:13.799Z,2.00
2018-09-22T02:10:40.732Z,2.00
2018-09-22T02:13:08.559Z,2.67
2018-09-22T02:15:35.562Z,2.17
2018-09-22T02:18:02.463Z,2.50
2018-09-22T02:20:29.379Z,1.93
2018-09-22T02:22:56.235Z,1.77
2018-09-22T02:25:23.167Z,2.20
2018-09-22T02:27:50.139Z,2.00
2018-09-22T02:30:17.060Z,1.97
2018-09-22T02:32:44.032Z,1.57
2018-09-22T02:35:10.918Z,1.63
2018-09-22T02:37:37.788Z,1.60
2018-09-22T02:40:04.707Z,1.53
2018-09-22T02:42:31.652Z,1.87
2018-09-22T02:44:58.595Z,1.87
2018-09-22T02:47:25.567Z,1.30
2018-09-22T02:49:52.503Z,1.40
2018-09-22T02:52:19.475Z,1.60
2018-09-22T02:54:46.347Z,1.50
2018-09-22T02:57:13.271Z,2.30
2018-09-22T02:59:40.250Z,1.70
2018-09-22T03:02:07.176Z,1.57
2018-09-22T03:04:34.068Z,1.20
2018-09-22T03:07:01.001Z,1.70
2018-09-22T03:09:27.956Z,2.03
2018-09-22T03:11:54.907Z,1.50
2018-09-22T03:14:21.871Z,1.73
2018-09-22T03:16:48.735Z,1.40
2018-09-22T03:19:15.700Z,1.97
2018-09-22T03:21:42.655Z,2.23
2018-09-22T03:24:09.632Z,1.77
2018-09-22T03:26:36.582Z,1.40
2018-09-22T03:29:03.512Z,1.80
2018-09-22T03:31:30.476Z,1.77
2018-09-22T03:33:57.431Z,1.90
2018-09-22T03:36:24.391Z,1.83
2018-09-22T03:38:51.359Z,1.60
2018-09-22T03:41:18.300Z,1.73
2018-09-22T03:43:45.259Z,2.30
2018-09-22T03:46:12.244Z,1.30
2018-09-22T03:48:39.213Z,1.53
2018-09-22T03:51:06.131Z,1.90
2018-09-22T03:53:32.987Z,1.30
2018-09-22T03:55:59.973Z,1.90
2018-09-22T03:58:26.871Z,1.50
2018-09-22T04:00:53.754Z,1.60
2018-09-22T04:03:20.743Z,1.57
2018-09-22T04:05:47.699Z,1.80
2018-09-22T04:08:14.687Z,1.73
2018-09-22T04:10:41.583Z,1.50
2018-09-22T04:13:08.555Z,1.80
2018-09-22T04:15:35.525Z,1.70
2018-09-22T04:18:02.478Z,1.53
2018-09-22T04:20:29.427Z,1.40
2018-09-22T04:22:56.381Z,1.77
2018-09-22T04:25:23.363Z,1.63
2018-09-22T04:27:50.293Z,1.50
2018-09-22T04:30:18.351Z,1.53
2018-09-22T04:32:45.230Z,1.47
2018-09-22T04:35:12.189Z,1.50
2018-09-22T04:37:39.180Z,1.70
2018-09-22T04:40:06.251Z,1.90
2018-09-22T04:42:33.239Z,1.70
2018-09-22T04:45:00.116Z,1.80
2018-09-22T04:47:27.079Z,1.70
2018-09-22T04:49:54.050Z,1.80
2018-09-22T04:52:21.024Z,1.67
2018-09-22T04:54:48.014Z,1.70
2018-09-22T04:57:14.911Z,1.83
2018-09-22T04:59:41.868Z,1.60
2018-09-22T05:02:08.947Z,1.27
2018-09-22T05:04:36.036Z,1.60
2018-09-22T05:07:02.971Z,1.67
2018-09-22T05:09:29.900Z,1.40
2018-09-22T05:11:56.859Z,1.53
2018-09-22T05:14:23.822Z,1.60
2018-09-22T05:16:50.813Z,1.33
2018-09-22T05:19:17.787Z,1.97
2018-09-22T05:21:44.687Z,2.00
2018-09-22T05:24:11.652Z,1.40
2018-09-22T05:26:38.599Z,1.23
2018-09-22T05:29:05.560Z,1.17
2018-09-22T05:31:32.996Z,1.40
2018-09-22T05:33:59.973Z,1.40
2018-09-22T05:36:26.939Z,1.60
2018-09-22T05:38:53.908Z,1.70
2018-09-22T05:41:20.851Z,1.40
2018-09-22T05:43:47.824Z,1.70
2018-09-22T05:46:14.767Z,1.07
2018-09-22T05:48:41.736Z,1.43
2018-09-22T05:51:08.716Z,1.20
2018-09-22T05:53:35.651Z,1.33
2018-09-22T05:56:02.591Z,1.73
2018-09-22T05:58:30.501Z,1.37
2018-09-22T06:00:57.439Z,1.33
2018-09-22T06:03:24.415Z,2.00
2018-09-22T06:05:51.359Z,1.23
2018-09-22T06:08:18.453Z,2.13
2018-09-22T06:10:45.381Z,1.50
2018-09-22T06:13:12.325Z,1.40
2018-09-22T06:15:39.284Z,1.63
2018-09-22T06:18:06.267Z,1.60
2018-09-22T06:20:33.204Z,1.60
2018-09-22T06:23:00.202Z,1.60
2018-09-22T06:25:27.164Z,1.40
2018-09-22T06:27:54.198Z,2.00
2018-09-22T06:30:21.140Z,1.80
2018-09-22T06:32:48.018Z,1.73
2018-09-22T06:35:14.931Z,1.23
2018-09-22T06:37:41.912Z,1.10
2018-09-22T06:40:08.860Z,1.90
2018-09-22T06:42:35.712Z,1.63
2018-09-22T06:45:02.676Z,1.80
2018-09-22T06:47:29.635Z,1.57
2018-09-22T06:49:56.591Z,2.00
2018-09-22T06:52:23.568Z,1.40
2018-09-22T06:54:51.055Z,1.83
2018-09-22T06:57:18.003Z,1.60
2018-09-22T06:59:45.965Z,1.70
2018-09-22T07:02:12.961Z,1.77
2018-09-22T07:04:40.060Z,1.80
2018-09-22T07:07:07.219Z,1.60
2018-09-22T07:09:34.100Z,1.63
2018-09-22T07:12:01.049Z,1.83
2018-09-22T07:14:27.899Z,1.70
2018-09-22T07:16:54.864Z,1.60
2018-09-22T07:19:21.858Z,1.50
2018-09-22T07:21:55.552Z,1.33
2018-09-22T07:24:22.496Z,1.40
2018-09-22T07:26:49.451Z,1.50
2018-09-22T07:29:18.374Z,1.60
2018-09-22T07:31:46.690Z,2.37
2018-09-22T07:34:13.607Z,1.60
2018-09-22T07:36:40.480Z,1.70
2018-09-22T07:39:08.216Z,1.50
2018-09-22T07:41:35.084Z,2.00
2018-09-22T07:44:02.255Z,1.40
2018-09-22T07:46:32.920Z,1.43
2018-09-22T07:49:01.571Z,1.30
2018-09-22T07:51:28.448Z,1.77
2018-09-22T07:53:55.422Z,1.40
2018-09-22T07:56:22.363Z,1.80
2018-09-22T07:58:49.324Z,1.43
2018-09-22T08:01:16.277Z,1.93
2018-09-22T08:03:43.259Z,1.67
2018-09-22T08:06:10.338Z,1.73
2018-09-22T08:08:37.388Z,1.50
2018-09-22T08:11:04.303Z,1.90
2018-09-22T08:13:31.278Z,1.53
2018-09-22T08:15:58.236Z,1.87
2018-09-22T08:18:25.095Z,1.53
2018-09-22T08:20:52.038Z,1.63
2018-09-22T08:23:18.991Z,1.63
2018-09-22T08:25:45.984Z,1.67
2018-09-22T08:28:13.947Z,1.37
2018-09-22T08:30:40.900Z,1.43
2018-09-22T08:33:07.874Z,1.67
2018-09-22T08:35:34.813Z,1.70
2018-09-22T08:38:01.784Z,1.80
2018-09-22T08:40:28.744Z,1.43
2018-09-22T08:42:55.677Z,1.60
2018-09-22T08:45:22.635Z,1.83
2018-09-22T08:47:50.616Z,1.70
2018-09-22T08:50:17.588Z,1.87
2018-09-22T08:52:44.462Z,1.73
2018-09-22T08:55:11.387Z,1.30
2018-09-22T08:57:38.350Z,1.50
2018-09-22T09:00:05.923Z,1.60
2018-09-22T09:02:32.779Z,1.90
2018-09-22T09:04:59.776Z,1.40
2018-09-22T09:07:26.696Z,1.60
2018-09-22T09:09:53.680Z,1.60
2018-09-22T09:12:20.624Z,1.40
2018-09-22T09:14:47.497Z,1.87
2018-09-22T09:17:14.427Z,2.07
2018-09-22T09:19:41.369Z,2.07
2018-09-22T09:22:08.361Z,1.53
2018-09-22T09:24:35.427Z,3.10
2018-09-22T09:27:02.275Z,1.90
2018-09-22T09:29:29.207Z,2.43
2018-09-22T09:31:56.160Z,1.30
2018-09-22T09:34:23.119Z,2.20
2018-09-22T09:36:50.015Z,1.40
2018-09-22T09:39:16.927Z,1.40
2018-09-22T09:41:43.895Z,1.80
2018-09-22T09:44:10.851Z,1.47
2018-09-22T09:46:37.839Z,2.20
2018-09-22T09:49:04.751Z,1.70
2018-09-22T09:51:31.712Z,1.67
2018-09-22T09:53:58.671Z,1.70
2018-09-22T09:56:25.631Z,2.07
2018-09-22T09:58:52.624Z,1.60
2018-09-22T10:01:19.555Z,2.70
2018-09-22T10:03:46.515Z,1.50
2018-09-22T10:06:13.455Z,1.80
2018-09-22T10:08:40.420Z,1.47
2018-09-22T10:11:07.367Z,1.87
2018-09-22T10:13:34.419Z,1.50
2018-09-22T10:16:01.392Z,1.93
2018-09-22T10:18:28.347Z,2.63
2018-09-22T10:20:55.215Z,1.83
2018-09-22T10:23:22.163Z,2.20
2018-09-22T10:25:49.122Z,1.50
2018-09-22T10:28:16.080Z,1.63
2018-09-22T10:30:43.026Z,1.50
2018-09-22T10:33:09.892Z,1.33
2018-09-22T10:35:36.839Z,1.47
2018-09-22T10:38:03.811Z,2.40
2018-09-22T10:40:30.699Z,1.67
2018-09-22T10:42:57.589Z,1.83
2018-09-22T10:45:24.485Z,1.63
2018-09-22T10:47:51.475Z,1.73
2018-09-22T10:50:18.391Z,1.90
2018-09-22T10:52:45.401Z,1.80
2018-09-22T10:55:13.351Z,1.80
2018-09-22T10:57:40.281Z,1.30
2018-09-22T11:00:07.276Z,1.27
2018-09-22T11:02:34.220Z,1.37
2018-09-22T11:05:01.178Z,1.73
2018-09-22T11:07:28.421Z,1.80
2018-09-22T11:09:55.378Z,1.90
2018-09-22T11:12:22.390Z,1.77
2018-09-22T11:14:49.479Z,1.13
2018-09-22T11:17:16.461Z,1.30
2018-09-22T11:19:43.411Z,1.80
2018-09-22T11:22:10.412Z,1.93
2018-09-22T11:24:37.263Z,1.97
2018-09-22T11:27:04.229Z,1.30
2018-09-22T11:29:31.155Z,1.30
2018-09-22T11:31:58.088Z,1.27
2018-09-22T11:34:24.988Z,1.57
2018-09-22T11:36:51.850Z,1.60
2018-09-22T11:39:18.771Z,1.90
2018-09-22T11:41:45.751Z,1.30
2018-09-22T11:44:12.687Z,1.97
2018-09-22T11:46:39.632Z,1.63
2018-09-22T11:49:06.591Z,1.33
2018-09-22T11:51:33.598Z,1.57
2018-09-22T11:54:00.521Z,1.93
2018-09-22T11:56:27.432Z,1.80
2018-09-22T11:58:54.328Z,1.20
2018-09-22T12:01:21.334Z,1.70
2018-09-22T12:03:48.260Z,1.70
2018-09-22T12:06:15.209Z,1.90
2018-09-22T12:08:42.052Z,1.20
2018-09-22T12:11:09.942Z,1.93
2018-09-22T12:13:36.901Z,1.77
2018-09-22T12:16:03.906Z,1.30
2018-09-22T12:18:30.783Z,1.23
2018-09-22T12:20:57.761Z,1.30
2018-09-22T12:23:24.712Z,1.53
2018-09-22T12:25:51.670Z,1.93
2018-09-22T12:28:18.647Z,2.03
2018-09-22T12:30:45.587Z,1.10
2018-09-22T12:33:12.522Z,0.87
2018-09-22T12:35:39.408Z,1.50
2018-09-22T12:38:06.407Z,1.27
2018-09-22T12:40:33.323Z,1.13
2018-09-22T12:43:00.263Z,1.70
2018-09-22T12:45:27.230Z,1.63
2018-09-22T12:47:54.317Z,1.30
2018-09-22T12:50:21.251Z,1.10
2018-09-22T12:52:48.232Z,1.50
2018-09-22T12:55:15.177Z,1.47
2018-09-22T12:57:42.035Z,1.90
2018-09-22T13:00:09.139Z,1.60
2018-09-22T13:02:36.071Z,1.73
2018-09-22T13:05:03.008Z,1.30
2018-09-22T13:07:30.008Z,1.50
2018-09-22T13:09:56.891Z,1.20
2018-09-22T13:12:23.869Z,1.43
2018-09-22T13:14:50.827Z,1.10
2018-09-22T13:17:17.773Z,1.33
2018-09-22T13:19:44.719Z,1.50
2018-09-22T13:22:11.724Z,1.30
2018-09-22T13:24:38.679Z,1.50
2018-09-22T13:27:05.651Z,1.40
2018-09-22T13:29:32.551Z,1.10
2018-09-22T13:31:59.536Z,1.63
2018-09-22T13:34:26.481Z,1.30
2018-09-22T13:36:53.539Z,1.40
2018-09-22T13:39:20.536Z,1.30
2018-09-22T13:41:47.479Z,1.10
2018-09-22T13:44:14.467Z,1.30
2018-09-22T13:46:41.383Z,1.50
2018-09-22T13:49:08.350Z,1.40
2018-09-22T13:51:35.223Z,1.20
2018-09-22T13:54:02.127Z,1.30
2018-09-22T13:56:29.092Z,1.20
2018-09-22T13:58:56.127Z,1.30
2018-09-22T14:01:23.037Z,1.23
2018-09-22T14:03:49.950Z,1.50
2018-09-22T14:06:16.923Z,1.17
2018-09-22T14:08:43.923Z,1.60
2018-09-22T14:11:10.845Z,1.40
2018-09-22T14:13:37.815Z,1.23
2018-09-22T14:16:04.783Z,1.13
2018-09-22T14:18:31.746Z,1.30
2018-09-22T14:20:58.727Z,1.47
2018-09-22T14:23:25.745Z,1.42
2018-09-22T14:25:52.690Z,1.10
2018-09-22T14:28:19.625Z,1.33
2018-09-22T14:30:46.600Z,1.10
2018-09-22T14:33:13.583Z,1.00
2018-09-22T14:35:40.447Z,1.37
2018-09-22T14:38:09.405Z,1.60
2018-09-22T14:40:36.446Z,1.73
2018-09-22T14:43:03.369Z,1.23
2018-09-22T14:45:30.289Z,1.10
2018-09-22T14:47:57.156Z,1.30
2018-09-22T14:50:25.264Z,1.43
2018-09-22T14:52:52.143Z,1.20
2018-09-22T14:55:19.048Z,1.10
2018-09-22T14:57:45.928Z,1.10
2018-09-22T15:00:12.837Z,1.20
2018-09-22T15:02:39.828Z,1.37
2018-09-22T15:05:06.769Z,1.20
2018-09-22T15:07:33.763Z,1.20
2018-09-22T15:10:00.628Z,1.23
2018-09-22T15:12:27.568Z,1.43
2018-09-22T15:14:54.485Z,1.27
2018-09-22T15:17:21.525Z,1.80
2018-09-22T15:19:48.312Z,1.13
2018-09-22T15:22:15.347Z,1.30
2018-09-22T15:24:42.312Z,1.77
2018-09-22T15:27:09.192Z,1.30
2018-09-22T15:29:36.059Z,1.43
2018-09-22T15:32:03.004Z,1.03
2018-09-22T15:34:29.960Z,1.33
2018-09-22T15:36:57.010Z,1.53
2018-09-22T15:39:23.856Z,1.23
2018-09-22T15:41:50.799Z,1.20
2018-09-22T15:44:17.759Z,1.40
2018-09-22T15:46:44.718Z,1.33
2018-09-22T15:49:11.671Z,1.40
2018-09-22T15:51:38.539Z,1.70
2018-09-22T15:54:05.514Z,1.30
2018-09-22T15:56:32.452Z,1.40
2018-09-22T15:58:59.404Z,1.73
2018-09-22T16:01:26.286Z,1.10
2018-09-22T16:03:53.281Z,1.80
2018-09-22T16:06:20.194Z,1.23
2018-09-22T16:08:47.322Z,1.00
2018-09-22T16:11:14.216Z,1.33
2018-09-22T16:13:41.084Z,1.32
2018-09-22T16:16:08.162Z,1.30
2018-09-22T16:18:34.968Z,1.13
2018-09-22T16:21:01.925Z,2.13
2018-09-22T16:23:28.807Z,4.83
2018-09-22T16:25:55.768Z,2.63
2018-09-22T16:28:22.709Z,1.40
2018-09-22T16:30:50.732Z,1.50
2018-09-22T16:33:17.652Z,1.20
2018-09-22T16:35:44.583Z,2.30
2018-09-22T16:38:11.544Z,2.33
2018-09-22T16:40:38.555Z,1.30
2018-09-22T16:43:05.563Z,2.00
2018-09-22T16:45:32.435Z,1.50
2018-09-22T16:47:59.411Z,1.20
2018-09-22T16:50:26.391Z,1.72
2018-09-22T16:52:53.310Z,1.73
2018-09-22T16:55:20.292Z,1.47
2018-09-22T16:57:48.252Z,2.00
2018-09-22T17:00:15.187Z,1.77
2018-09-22T17:02:42.136Z,1.53
2018-09-22T17:05:09.099Z,1.50
2018-09-22T17:07:35.952Z,1.47
2018-09-22T17:10:02.995Z,1.93
2018-09-22T17:12:29.872Z,1.60
2018-09-22T17:14:56.833Z,2.40
2018-09-22T17:17:23.797Z,1.53
2018-09-22T17:19:50.739Z,1.60
2018-09-22T17:22:17.760Z,1.70
2018-09-22T17:24:44.664Z,2.23
2018-09-22T17:27:11.620Z,1.43
2018-09-22T17:29:38.567Z,1.90
2018-09-22T17:32:05.539Z,1.67
2018-09-22T17:34:32.528Z,1.40
2018-09-22T17:36:59.451Z,1.50
2018-09-22T17:39:26.325Z,2.63
2018-09-22T17:41:53.264Z,1.40
2018-09-22T17:44:20.248Z,1.60
2018-09-22T17:46:47.172Z,2.00
2018-09-22T17:49:14.132Z,1.60
2018-09-22T17:51:40.994Z,1.90
2018-09-22T17:54:07.981Z,2.47
2018-09-22T17:56:34.896Z,1.93
2018-09-22T17:59:01.868Z,1.40
2018-09-22T18:01:28.768Z,2.53
2018-09-22T18:03:55.863Z,1.60
2018-09-22T18:06:23.512Z,2.90
2018-09-22T18:08:50.411Z,3.27
2018-09-22T18:11:17.278Z,3.30
2018-09-22T18:13:44.212Z,3.30
2018-09-22T18:16:11.219Z,3.27
2018-09-22T18:18:38.155Z,2.00
2018-09-22T18:21:05.725Z,2.15
2018-09-22T18:23:32.580Z,2.10
2018-09-22T18:25:59.515Z,1.80
2018-09-22T18:28:26.512Z,1.33
2018-09-22T18:30:53.415Z,1.73
2018-09-22T18:33:20.290Z,1.40
2018-09-22T18:35:47.158Z,1.60
2018-09-22T18:38:14.121Z,1.30
2018-09-22T18:40:41.069Z,1.60
2018-09-22T18:43:08.016Z,2.90
2018-09-22T18:45:35.099Z,2.73
2018-09-22T18:48:02.028Z,2.83
2018-09-22T18:50:29.028Z,2.10
2018-09-22T18:52:56.002Z,1.80
2018-09-22T18:55:22.907Z,1.33
2018-09-22T18:57:49.780Z,1.62
2018-09-22T19:00:16.739Z,1.37
2018-09-22T19:02:43.699Z,1.60
2018-09-22T19:05:10.676Z,2.50
2018-09-22T19:07:37.615Z,3.17
2018-09-22T19:10:04.637Z,3.10
2018-09-22T19:12:31.664Z,1.97
2018-09-22T19:15:02.540Z,1.83
2018-09-22T19:17:49.428Z,2.67
2018-09-22T19:20:21.028Z,1.90
2018-09-22T19:22:50.915Z,2.30
2018-09-22T19:25:19.907Z,1.90
2018-09-22T19:27:55.520Z,1.70
2018-09-22T19:30:28.646Z,1.70
2018-09-22T19:33:14.280Z,2.20
2018-09-22T19:35:46.136Z,1.90
2018-09-22T19:38:23.856Z,1.93
2018-09-22T19:40:54.651Z,1.90
2018-09-22T19:43:28.063Z,2.07
2018-09-22T19:45:58.916Z,1.70
2018-09-22T19:48:31.143Z,1.90
2018-09-22T19:51:02.404Z,2.10
2018-09-22T19:53:29.344Z,2.50
2018-09-22T19:55:56.287Z,2.40
2018-09-22T19:58:24.388Z,2.10
2018-09-22T20:00:53.393Z,1.60
2018-09-22T20:03:20.295Z,2.53
2018-09-22T20:05:47.211Z,1.40
2018-09-22T20:08:14.127Z,2.10
2018-09-22T20:10:41.020Z,1.80
2018-09-22T20:13:07.888Z,1.83
2018-09-22T20:15:34.814Z,1.90
2018-09-22T20:18:01.864Z,2.20
2018-09-22T20:20:28.899Z,1.87
2018-09-22T20:22:55.783Z,2.00
2018-09-22T20:25:22.648Z,2.47
2018-09-22T20:27:49.628Z,1.97
2018-09-22T20:30:21.965Z,2.07
2018-09-22T20:32:48.843Z,1.63
2018-09-22T20:35:15.855Z,1.70
2018-09-22T20:37:42.760Z,2.03
2018-09-22T20:40:09.719Z,2.30
2018-09-22T20:42:36.679Z,2.07
2018-09-22T20:45:03.864Z,1.53
2018-09-22T20:47:30.806Z,1.97
2018-09-22T20:49:57.811Z,1.67
2018-09-22T20:52:24.712Z,2.00
2018-09-22T20:54:51.664Z,2.20
2018-09-22T20:57:19.647Z,1.73
2018-09-22T20:59:46.610Z,2.87
2018-09-22T21:02:13.616Z,2.77
2018-09-22T21:04:40.503Z,2.30
2018-09-22T21:07:07.370Z,2.33
2018-09-22T21:09:34.319Z,2.10
2018-09-22T21:12:01.280Z,3.10
2018-09-22T21:14:28.239Z,2.50
2018-09-22T21:16:55.120Z,2.53
2018-09-22T21:19:22.074Z,1.50
2018-09-22T21:21:49.015Z,2.40
2018-09-22T21:24:15.991Z,1.87
2018-09-22T21:26:42.916Z,2.40
2018-09-22T21:29:10.823Z,2.07
2018-09-22T21:31:37.771Z,1.80
2018-09-22T21:34:04.752Z,2.03
2018-09-22T21:36:31.712Z,1.37
2018-09-22T21:38:58.595Z,2.40
2018-09-22T21:41:25.479Z,2.20
2018-09-22T21:43:52.470Z,1.77
2018-09-22T21:46:19.416Z,1.90
2018-09-22T21:48:46.411Z,2.02
2018-09-22T21:51:13.312Z,2.20
2018-09-22T21:53:40.339Z,1.93
2018-09-22T21:56:07.439Z,2.43
2018-09-22T21:58:34.411Z,1.80
2018-09-22T22:01:01.271Z,1.70
2018-09-22T22:03:28.204Z,1.80
2018-09-22T22:05:55.160Z,1.90
2018-09-22T22:08:22.114Z,1.90
2018-09-22T22:10:49.004Z,1.73
2018-09-22T22:13:15.944Z,1.83
2018-09-22T22:15:42.900Z,1.93
2018-09-22T22:18:09.999Z,1.83
2018-09-22T22:20:37.703Z,2.30
2018-09-22T22:23:04.592Z,2.07
2018-09-22T22:25:31.664Z,1.53
2018-09-22T22:27:58.591Z,2.40
2018-09-22T22:30:25.547Z,2.40
2018-09-22T22:32:52.587Z,2.37
2018-09-22T22:35:21.625Z,1.73
2018-09-22T22:37:48.475Z,1.80
2018-09-22T22:40:15.459Z,2.20
2018-09-22T22:42:42.420Z,1.83
2018-09-22T22:45:09.275Z,1.97
2018-09-22T22:47:36.264Z,1.70
2018-09-22T22:50:03.159Z,2.00
2018-09-22T22:52:30.131Z,2.42
2018-09-22T22:54:56.995Z,2.00
2018-09-22T22:57:23.940Z,2.27
2018-09-22T22:59:50.895Z,2.10
2018-09-22T23:02:17.925Z,2.10
2018-09-22T23:04:44.811Z,1.73
2018-09-22T23:07:11.755Z,2.30
2018-09-22T23:09:38.614Z,1.87
2018-09-22T23:12:05.573Z,1.70
2018-09-22T23:14:32.560Z,2.10
2018-09-22T23:16:59.420Z,2.70
2018-09-22T23:19:26.347Z,1.90
2018-09-22T23:21:53.328Z,1.80
2018-09-22T23:24:20.255Z,2.10
2018-09-22T23:26:47.219Z,2.13
2018-09-22T23:29:14.080Z,2.00
2018-09-22T23:31:41.044Z,1.97
2018-09-22T23:34:07.987Z,2.03
2018-09-22T23:36:34.943Z,2.00
2018-09-22T23:39:01.913Z,2.43
2018-09-22T23:41:28.774Z,1.80
2018-09-22T23:43:55.727Z,2.03
2018-09-22T23:46:22.827Z,2.40
2018-09-22T23:48:49.727Z,2.10
2018-09-22T23:51:16.591Z,1.73
2018-09-22T23:53:43.535Z,2.00
2018-09-22T23:56:10.427Z,1.83
2018-09-22T23:58:37.407Z,2.20
